Ron Hunter — WDH4137 — position and weather

sailwx.info

Track history (hours):
 
Tides and Currents Weather Stations Pressure Air Temp Water Temp Dewpoint Dewpoint Depression Visibility Wind Speed Wind Dir Waves Ship Positions

Ron Hunter

Owner: HF Marine, LLC, Nashville, TN. More information available from US FCC via Universal Licensing System and Coast Guard Vessel Documentation Center.

Last reported at 2018-Jul-22 06:27 UTC. Time now 2018-Jul-22 06:26 UTC.
Position N 30°07' W 091°01'.

Length 48 m; draft 3 m.

Type: Towing. MMSI: 367614550.

Date/timePositionNaut miles runAvg speedWind from/ knotsBaromVisibWave heightAir tempDewpointWater temp
2018-Jul-22 06:27N 30°07' W 091°01'2 5.0
2018-Jul-22 06:00N 30°06' W 090°59'2 4.0
2018-Jul-22 05:29N 30°08' W 090°57'3 4.1
2018-Jul-22 04:46N 30°06' W 090°55'2 5.3
2018-Jul-22 04:23N 30°04' W 090°54'2 4.8
2018-Jul-22 03:53N 30°03' W 090°51'2 5.5
2018-Jul-22 03:30N 30°01' W 090°50'19 1.6
2018-Jul-21 15:44N 30°11' W 091°09'6 4.5
2018-Jul-21 14:23N 30°17' W 091°09'4 2.2
2018-Jul-21 12:30N 30°21' W 091°10'4 3.4
2018-Jul-21 11:26N 30°24' W 091°13'3 7.2
2018-Jul-21 10:59N 30°27' W 091°12'4 4.8
2018-Jul-21 10:07N 30°31' W 091°12'0 1.8
2018-Jul-21 09:57N 30°31' W 091°12'1 3.3
2018-Jul-21 09:30N 30°31' W 091°14'0 0.1
2018-Jul-21 07:33N 30°31' W 091°14'0 0.0
2018-Jul-21 07:29N 30°31' W 091°14'0 0.0
2018-Jul-21 06:51N 30°31' W 091°14'0 0.0
2018-Jul-21 06:30N 30°31' W 091°14'2 3.8
2018-Jul-21 05:58N 30°30' W 091°16'81 4.6
2018-Jul-20 12:14N 31°51' W 091°16'7 7.0
2018-Jul-20 11:12N 31°57' W 091°11'3 6.5
2018-Jul-20 10:43N 31°59' W 091°08'2 7.5
2018-Jul-20 10:26N 31°59' W 091°06'4 7.6
2018-Jul-20 09:51N 32°03' W 091°03'4 7.1
2018-Jul-20 09:21N 32°06' W 091°06'2 5.4
2018-Jul-20 09:00N 32°08' W 091°06'4 7.4
2018-Jul-20 08:30N 32°07' W 091°01'4 7.5
2018-Jul-20 08:00N 32°11' W 091°00'4 7.7
2018-Jul-20 07:30N 32°15' W 090°59'4 7.7
2018-Jul-20 07:00N 32°17' W 090°56'3 5.8
2018-Jul-20 06:30N 32°20' W 090°54'2 4.6
2018-Jul-20 06:00N 32°21' W 090°57'3 6.3
2018-Jul-20 05:31N 32°22' W 091°00'4 7.3
2018-Jul-20 05:00N 32°25' W 091°00'4 7.7
2018-Jul-20 04:30N 32°27' W 091°04'4 7.1
2018-Jul-20 03:58N 32°30' W 091°07'4 7.8
2018-Jul-20 03:30N 32°33' W 091°06'4 7.5
2018-Jul-20 03:00N 32°36' W 091°09'8 4.2
2018-Jul-20 01:02N 32°45' W 091°09'0 7.4
2018-Jul-20 01:00N 32°45' W 091°09'  
Track history (hours):
 
Tides and Currents Weather Stations Pressure Air Temp Water Temp Dewpoint Dewpoint Depression Visibility Wind Speed Wind Dir Waves Ship Positions

Ron Hunter

Owner: HF Marine, LLC, Nashville, TN. More information available from US FCC via Universal Licensing System and Coast Guard Vessel Documentation Center.

Last reported at 2018-Jul-22 06:27 UTC. Time now 2018-Jul-22 06:26 UTC.
Position N 30°07' W 091°01'.

Length 48 m; draft 3 m.

Type: Towing. MMSI: 367614550.

Date/timePositionNaut miles runAvg speedWind from/ knotsBaromVisibWave heightAir tempDewpointWater temp
2018-Jul-22 06:27N 30°07' W 091°01'2 5.0
2018-Jul-22 06:00N 30°06' W 090°59'2 4.0
2018-Jul-22 05:29N 30°08' W 090°57'3 4.1
2018-Jul-22 04:46N 30°06' W 090°55'2 5.3
2018-Jul-22 04:23N 30°04' W 090°54'2 4.8
2018-Jul-22 03:53N 30°03' W 090°51'2 5.5
2018-Jul-22 03:30N 30°01' W 090°50'19 1.6
2018-Jul-21 15:44N 30°11' W 091°09'6 4.5
2018-Jul-21 14:23N 30°17' W 091°09'4 2.2
2018-Jul-21 12:30N 30°21' W 091°10'4 3.4
2018-Jul-21 11:26N 30°24' W 091°13'3 7.2
2018-Jul-21 10:59N 30°27' W 091°12'4 4.8
2018-Jul-21 10:07N 30°31' W 091°12'0 1.8
2018-Jul-21 09:57N 30°31' W 091°12'1 3.3
2018-Jul-21 09:30N 30°31' W 091°14'0 0.1
2018-Jul-21 07:33N 30°31' W 091°14'0 0.0
2018-Jul-21 07:29N 30°31' W 091°14'0 0.0
2018-Jul-21 06:51N 30°31' W 091°14'0 0.0
2018-Jul-21 06:30N 30°31' W 091°14'2 3.8
2018-Jul-21 05:58N 30°30' W 091°16'81 4.6
2018-Jul-20 12:14N 31°51' W 091°16'7 7.0
2018-Jul-20 11:12N 31°57' W 091°11'3 6.5
2018-Jul-20 10:43N 31°59' W 091°08'2 7.5
2018-Jul-20 10:26N 31°59' W 091°06'4 7.6
2018-Jul-20 09:51N 32°03' W 091°03'4 7.1
2018-Jul-20 09:21N 32°06' W 091°06'2 5.4
2018-Jul-20 09:00N 32°08' W 091°06'4 7.4
2018-Jul-20 08:30N 32°07' W 091°01'4 7.5
2018-Jul-20 08:00N 32°11' W 091°00'4 7.7
2018-Jul-20 07:30N 32°15' W 090°59'4 7.7
2018-Jul-20 07:00N 32°17' W 090°56'3 5.8
2018-Jul-20 06:30N 32°20' W 090°54'2 4.6
2018-Jul-20 06:00N 32°21' W 090°57'3 6.3
2018-Jul-20 05:31N 32°22' W 091°00'4 7.3
2018-Jul-20 05:00N 32°25' W 091°00'4 7.7
2018-Jul-20 04:30N 32°27' W 091°04'4 7.1
2018-Jul-20 03:58N 32°30' W 091°07'4 7.8
2018-Jul-20 03:30N 32°33' W 091°06'4 7.5
2018-Jul-20 03:00N 32°36' W 091°09'8 4.2
2018-Jul-20 01:02N 32°45' W 091°09'0 7.4
2018-Jul-20 01:00N 32°45' W 091°09'  

Dump ship's entire track history